sensor_id;sensor_type;location;lat;lon;timestamp;pressure;altitude;pressure_sealevel;temperature;humidity
13068;BME280;6600;51.362;6.686;2022-11-14T00:01:27;101161.72;;;4.43;100.00
13068;BME280;6600;51.362;6.686;2022-11-14T00:03:52;101157.56;;;4.41;100.00
13068;BME280;6600;51.362;6.686;2022-11-14T00:06:18;101157.88;;;4.38;100.00
13068;BME280;6600;51.362;6.686;2022-11-14T00:08:43;101154.75;;;4.34;100.00
13068;BME280;6600;51.362;6.686;2022-11-14T00:11:09;101150.75;;;4.30;100.00
13068;BME280;6600;51.362;6.686;2022-11-14T00:13:34;101145.78;;;4.27;100.00
13068;BME280;6600;51.362;6.686;2022-11-14T00:15:59;101144.13;;;4.26;100.00
13068;BME280;6600;51.362;6.686;2022-11-14T00:18:25;101149.06;;;4.21;100.00
13068;BME280;6600;51.362;6.686;2022-11-14T00:20:51;101150.09;;;4.20;100.00
13068;BME280;6600;51.362;6.686;2022-11-14T00:23:18;101149.59;;;4.17;100.00
13068;BME280;6600;51.362;6.686;2022-11-14T00:25:44;101148.75;;;4.16;100.00
13068;BME280;6600;51.362;6.686;2022-11-14T00:28:10;101144.44;;;4.15;100.00
13068;BME280;6600;51.362;6.686;2022-11-14T00:30:36;101147.06;;;4.15;100.00
13068;BME280;6600;51.362;6.686;2022-11-14T00:33:01;101147.41;;;4.12;100.00
13068;BME280;6600;51.362;6.686;2022-11-14T00:35:26;101133.78;;;4.07;100.00
13068;BME280;6600;51.362;6.686;2022-11-14T00:37:52;101146.06;;;4.08;100.00
13068;BME280;6600;51.362;6.686;2022-11-14T00:40:17;101142.91;;;4.04;100.00
13068;BME280;6600;51.362;6.686;2022-11-14T00:42:42;101141.09;;;4.05;100.00
13068;BME280;6600;51.362;6.686;2022-11-14T00:45:09;101139.75;;;4.01;100.00
13068;BME280;6600;51.362;6.686;2022-11-14T00:47:35;101136.44;;;3.99;100.00
13068;BME280;6600;51.362;6.686;2022-11-14T00:50:00;101129.16;;;3.93;100.00
13068;BME280;6600;51.362;6.686;2022-11-14T00:52:26;101136.78;;;3.96;100.00
13068;BME280;6600;51.362;6.686;2022-11-14T00:54:51;101132.47;;;3.95;100.00
13068;BME280;6600;51.362;6.686;2022-11-14T00:57:16;101122.19;;;3.92;100.00
13068;BME280;6600;51.362;6.686;2022-11-14T00:59:42;101114.56;;;3.89;100.00
13068;BME280;6600;51.362;6.686;2022-11-14T01:02:07;101118.19;;;3.88;100.00
13068;BME280;6600;51.362;6.686;2022-11-14T01:04:32;101113.22;;;3.85;100.00
13068;BME280;6600;51.362;6.686;2022-11-14T01:06:58;101115.19;;;3.83;100.00
13068;BME280;6600;51.362;6.686;2022-11-14T01:09:23;101111.88;;;3.81;100.00
13068;BME280;6600;51.362;6.686;2022-11-14T01:11:48;101105.94;;;3.79;100.00
13068;BME280;6600;51.362;6.686;2022-11-14T01:14:13;101107.88;;;3.77;100.00
13068;BME280;6600;51.362;6.686;2022-11-14T01:16:39;101105.41;;;3.75;100.00
13068;BME280;6600;51.362;6.686;2022-11-14T01:19:04;101105.56;;;3.74;100.00
13068;BME280;6600;51.362;6.686;2022-11-14T01:21:30;101102.25;;;3.72;100.00
13068;BME280;6600;51.362;6.686;2022-11-14T01:23:55;101091.66;;;3.72;100.00
13068;BME280;6600;51.362;6.686;2022-11-14T01:26:20;101087.34;;;3.71;100.00
13068;BME280;6600;51.362;6.686;2022-11-14T01:28:46;101081.38;;;3.69;100.00
13068;BME280;6600;51.362;6.686;2022-11-14T01:31:19;101078.06;;;3.67;100.00
13068;BME280;6600;51.362;6.686;2022-11-14T01:33:50;101077.22;;;3.66;100.00
13068;BME280;6600;51.362;6.686;2022-11-14T01:36:16;101077.53;;;3.63;100.00
13068;BME280;6600;51.362;6.686;2022-11-14T01:38:41;101077.72;;;3.62;100.00
13068;BME280;6600;51.362;6.686;2022-11-14T01:41:12;101071.75;;;3.60;100.00
13068;BME280;6600;51.362;6.686;2022-11-14T01:43:39;101072.06;;;3.56;100.00
13068;BME280;6600;51.362;6.686;2022-11-14T01:46:28;101070.72;;;3.52;100.00
13068;BME280;6600;51.362;6.686;2022-11-14T01:49:57;101060.44;;;3.49;100.00
13068;BME280;6600;51.362;6.686;2022-11-14T01:52:03;101055.81;;;3.43;100.00
13068;BME280;6600;51.362;6.686;2022-11-14T01:54:34;101048.84;;;3.42;100.00
13068;BME280;6600;51.362;6.686;2022-11-14T01:57:02;101043.88;;;3.39;100.00
13068;BME280;6600;51.362;6.686;2022-11-14T01:59:48;101040.56;;;3.37;100.00
13068;BME280;6600;51.362;6.686;2022-11-14T02:02:21;101049.50;;;3.36;100.00
13068;BME280;6600;51.362;6.686;2022-11-14T02:04:54;101047.81;;;3.35;100.00
13068;BME280;6600;51.362;6.686;2022-11-14T02:07:23;101046.19;;;3.34;100.00
13068;BME280;6600;51.362;6.686;2022-11-14T02:09:50;101046.47;;;3.31;100.00
13068;BME280;6600;51.362;6.686;2022-11-14T02:12:17;101053.78;;;3.29;100.00
13068;BME280;6600;51.362;6.686;2022-11-14T02:14:45;101050.13;;;3.30;100.00
13068;BME280;6600;51.362;6.686;2022-11-14T02:17:12;101053.78;;;3.29;100.00
13068;BME280;6600;51.362;6.686;2022-11-14T02:20:06;101054.59;;;3.30;100.00
13068;BME280;6600;51.362;6.686;2022-11-14T02:22:31;101045.16;;;3.27;100.00
13068;BME280;6600;51.362;6.686;2022-11-14T02:24:57;101046.16;;;3.26;100.00
13068;BME280;6600;51.362;6.686;2022-11-14T02:27:22;101053.25;;;3.26;100.00
13068;BME280;6600;51.362;6.686;2022-11-14T02:29:48;101041.31;;;3.22;100.00
13068;BME280;6600;51.362;6.686;2022-11-14T02:32:13;101042.47;;;3.19;100.00
13068;BME280;6600;51.362;6.686;2022-11-14T02:34:38;101039.19;;;3.17;100.00
13068;BME280;6600;51.362;6.686;2022-11-14T02:37:04;101032.22;;;3.16;100.00
13068;BME280;6600;51.362;6.686;2022-11-14T02:39:30;101030.53;;;3.15;100.00
13068;BME280;6600;51.362;6.686;2022-11-14T02:41:55;101023.56;;;3.14;100.00
13068;BME280;6600;51.362;6.686;2022-11-14T02:44:20;101026.41;;;3.13;100.00
13068;BME280;6600;51.362;6.686;2022-11-14T02:46:46;101022.28;;;3.10;100.00
13068;BME280;6600;51.362;6.686;2022-11-14T02:49:11;101023.25;;;3.09;100.00
13068;BME280;6600;51.362;6.686;2022-11-14T02:51:36;101015.63;;;3.06;100.00
13068;BME280;6600;51.362;6.686;2022-11-14T02:54:02;101015.63;;;3.06;100.00
13068;BME280;6600;51.362;6.686;2022-11-14T02:56:27;101011.97;;;3.07;100.00
13068;BME280;6600;51.362;6.686;2022-11-14T02:58:52;101009.00;;;3.02;100.00
13068;BME280;6600;51.362;6.686;2022-11-14T03:01:18;101005.66;;;3.00;100.00
13068;BME280;6600;51.362;6.686;2022-11-14T03:03:43;101006.47;;;3.00;100.00
13068;BME280;6600;51.362;6.686;2022-11-14T03:06:08;101008.81;;;2.95;100.00
13068;BME280;6600;51.362;6.686;2022-11-14T03:08:34;101004.66;;;2.93;100.00
13068;BME280;6600;51.362;6.686;2022-11-14T03:11:04;101001.31;;;2.91;100.00
13068;BME280;6600;51.362;6.686;2022-11-14T03:13:30;101004.44;;;2.86;100.00
13068;BME280;6600;51.362;6.686;2022-11-14T03:15:55;101000.31;;;2.84;100.00
13068;BME280;6600;51.362;6.686;2022-11-14T03:18:20;100998.81;;;2.81;100.00
13068;BME280;6600;51.362;6.686;2022-11-14T03:20:46;100993.66;;;2.80;100.00
13068;BME280;6600;51.362;6.686;2022-11-14T03:23:11;100992.03;;;2.79;100.00
13068;BME280;6600;51.362;6.686;2022-11-14T03:25:37;100997.63;;;2.76;100.00
13068;BME280;6600;51.362;6.686;2022-11-14T03:28:02;100990.69;;;2.75;100.00
13068;BME280;6600;51.362;6.686;2022-11-14T03:30:27;100990.34;;;2.78;100.00
13068;BME280;6600;51.362;6.686;2022-11-14T03:32:55;100986.41;;;2.82;100.00
13068;BME280;6600;51.362;6.686;2022-11-14T03:35:20;100979.63;;;2.87;100.00
13068;BME280;6600;51.362;6.686;2022-11-14T03:37:45;100976.00;;;2.88;100.00
13068;BME280;6600;51.362;6.686;2022-11-14T03:40:11;100980.47;;;2.88;100.00
13068;BME280;6600;51.362;6.686;2022-11-14T03:42:36;100977.00;;;2.87;100.00
13068;BME280;6600;51.362;6.686;2022-11-14T03:45:01;100962.94;;;2.87;100.00
13068;BME280;6600;51.362;6.686;2022-11-14T03:47:27;100964.91;;;2.85;100.00
13068;BME280;6600;51.362;6.686;2022-11-14T03:49:52;100971.19;;;2.84;100.00
13068;BME280;6600;51.362;6.686;2022-11-14T03:52:17;100975.31;;;2.78;100.00
13068;BME280;6600;51.362;6.686;2022-11-14T03:54:43;100982.06;;;2.73;100.00
13068;BME280;6600;51.362;6.686;2022-11-14T03:57:08;100977.91;;;2.70;100.00
13068;BME280;6600;51.362;6.686;2022-11-14T03:59:33;100983.38;;;2.69;100.00
13068;BME280;6600;51.362;6.686;2022-11-14T04:01:59;100980.03;;;2.67;100.00
13068;BME280;6600;51.362;6.686;2022-11-14T04:04:24;100974.94;;;2.65;100.00
13068;BME280;6600;51.362;6.686;2022-11-14T04:06:49;100975.72;;;2.66;100.00
13068;BME280;6600;51.362;6.686;2022-11-14T04:09:14;100962.69;;;2.64;100.00
13068;BME280;6600;51.362;6.686;2022-11-14T04:11:40;100962.50;;;2.66;100.00
13068;BME280;6600;51.362;6.686;2022-11-14T04:14:05;100958.88;;;2.67;100.00
13068;BME280;6600;51.362;6.686;2022-11-14T04:16:30;100957.38;;;2.64;100.00
13068;BME280;6600;51.362;6.686;2022-11-14T04:18:56;100951.59;;;2.61;100.00
13068;BME280;6600;51.362;6.686;2022-11-14T04:21:21;100953.25;;;2.62;100.00
13068;BME280;6600;51.362;6.686;2022-11-14T04:23:46;100941.31;;;2.58;100.00
13068;BME280;6600;51.362;6.686;2022-11-14T04:26:12;100950.22;;;2.57;100.00
13068;BME280;6600;51.362;6.686;2022-11-14T04:28:37;100950.22;;;2.57;100.00
13068;BME280;6600;51.362;6.686;2022-11-14T04:31:02;100948.28;;;2.59;100.00
13068;BME280;6600;51.362;6.686;2022-11-14T04:33:28;100947.97;;;2.62;100.00
13068;BME280;6600;51.362;6.686;2022-11-14T04:35:53;100947.97;;;2.62;100.00
13068;BME280;6600;51.362;6.686;2022-11-14T04:38:18;100947.63;;;2.65;100.00
13068;BME280;6600;51.362;6.686;2022-11-14T04:40:50;100946.28;;;2.61;100.00
13068;BME280;6600;51.362;6.686;2022-11-14T04:43:17;100946.81;;;2.64;100.00
13068;BME280;6600;51.362;6.686;2022-11-14T04:45:42;100947.78;;;2.63;100.00
13068;BME280;6600;51.362;6.686;2022-11-14T04:48:08;100946.94;;;2.54;100.00
13068;BME280;6600;51.362;6.686;2022-11-14T04:50:33;100954.19;;;2.52;100.00
13068;BME280;6600;51.362;6.686;2022-11-14T04:52:58;100948.88;;;2.52;100.00
13068;BME280;6600;51.362;6.686;2022-11-14T04:55:24;100946.94;;;2.54;100.00
13068;BME280;6600;51.362;6.686;2022-11-14T04:57:56;100944.31;;;2.63;100.00
13068;BME280;6600;51.362;6.686;2022-11-14T05:00:22;100938.72;;;2.74;100.00
13068;BME280;6600;51.362;6.686;2022-11-14T05:02:47;100942.09;;;2.84;100.00
13068;BME280;6600;51.362;6.686;2022-11-14T05:05:13;100932.38;;;2.92;100.00
13068;BME280;6600;51.362;6.686;2022-11-14T05:07:38;100933.19;;;3.01;100.00
13068;BME280;6600;51.362;6.686;2022-11-14T05:10:04;100927.97;;;3.17;100.00
13068;BME280;6600;51.362;6.686;2022-11-14T05:12:29;100921.69;;;3.42;100.00
13068;BME280;6600;51.362;6.686;2022-11-14T05:14:55;100921.22;;;3.71;100.00
13068;BME280;6600;51.362;6.686;2022-11-14T05:17:21;100919.38;;;3.96;100.00
13068;BME280;6600;51.362;6.686;2022-11-14T05:19:46;100919.84;;;4.16;100.00
13068;BME280;6600;51.362;6.686;2022-11-14T05:22:11;100915.66;;;4.29;100.00
13068;BME280;6600;51.362;6.686;2022-11-14T05:24:37;100910.97;;;4.47;100.00
13068;BME280;6600;51.362;6.686;2022-11-14T05:27:02;100912.25;;;4.59;100.00
13068;BME280;6600;51.362;6.686;2022-11-14T05:29:28;100914.53;;;4.71;100.00
13068;BME280;6600;51.362;6.686;2022-11-14T05:31:53;100909.69;;;4.74;100.00
13068;BME280;6600;51.362;6.686;2022-11-14T05:34:18;100908.16;;;4.80;100.00
13068;BME280;6600;51.362;6.686;2022-11-14T05:36:44;100909.84;;;4.81;100.00
13068;BME280;6600;51.362;6.686;2022-11-14T05:39:09;100908.53;;;4.77;100.00
13068;BME280;6600;51.362;6.686;2022-11-14T05:41:34;100910.69;;;4.73;100.00
13068;BME280;6600;51.362;6.686;2022-11-14T05:43:59;100905.25;;;4.67;100.00
13068;BME280;6600;51.362;6.686;2022-11-14T05:46:25;100901.63;;;4.59;100.00
13068;BME280;6600;51.362;6.686;2022-11-14T05:48:50;100893.38;;;4.54;100.00
13068;BME280;6600;51.362;6.686;2022-11-14T05:51:15;100897.38;;;4.50;100.00
13068;BME280;6600;51.362;6.686;2022-11-14T05:53:41;100901.84;;;4.50;100.00
13068;BME280;6600;51.362;6.686;2022-11-14T05:56:10;100901.34;;;4.46;100.00
13068;BME280;6600;51.362;6.686;2022-11-14T05:58:36;100894.53;;;4.52;100.00
13068;BME280;6600;51.362;6.686;2022-11-14T06:01:17;100892.06;;;4.50;100.00
13068;BME280;6600;51.362;6.686;2022-11-14T06:03:45;100894.72;;;4.50;100.00
13068;BME280;6600;51.362;6.686;2022-11-14T06:06:13;100895.34;;;4.52;100.00
13068;BME280;6600;51.362;6.686;2022-11-14T06:08:39;100899.50;;;4.55;100.00
13068;BME280;6600;51.362;6.686;2022-11-14T06:11:10;100889.22;;;4.52;100.00
13068;BME280;6600;51.362;6.686;2022-11-14T06:13:36;100892.53;;;4.54;100.00
13068;BME280;6600;51.362;6.686;2022-11-14T06:16:05;100889.56;;;4.49;100.00
13068;BME280;6600;51.362;6.686;2022-11-14T06:18:31;100887.09;;;4.47;100.00
13068;BME280;6600;51.362;6.686;2022-11-14T06:20:58;100893.75;;;4.43;100.00
13068;BME280;6600;51.362;6.686;2022-11-14T06:23:24;100890.41;;;4.41;100.00
13068;BME280;6600;51.362;6.686;2022-11-14T06:25:49;100890.94;;;4.37;100.00
13068;BME280;6600;51.362;6.686;2022-11-14T06:28:14;100892.63;;;4.30;100.00
13068;BME280;6600;51.362;6.686;2022-11-14T06:30:40;100900.09;;;4.26;100.00
13068;BME280;6600;51.362;6.686;2022-11-14T06:33:05;100901.44;;;4.22;100.00
13068;BME280;6600;51.362;6.686;2022-11-14T06:35:30;100899.59;;;4.23;100.00
13068;BME280;6600;51.362;6.686;2022-11-14T06:37:58;100899.94;;;4.20;100.00
13068;BME280;6600;51.362;6.686;2022-11-14T06:40:24;100905.59;;;4.17;100.00
13068;BME280;6600;51.362;6.686;2022-11-14T06:42:49;100895.63;;;4.27;100.00
13068;BME280;6600;51.362;6.686;2022-11-14T06:45:14;100901.34;;;4.46;100.00
13068;BME280;6600;51.362;6.686;2022-11-14T06:47:40;100894.00;;;4.65;100.00
13068;BME280;6600;51.362;6.686;2022-11-14T06:50:06;100894.25;;;4.78;100.00
13068;BME280;6600;51.362;6.686;2022-11-14T06:52:31;100899.53;;;4.86;100.00
13068;BME280;6600;51.362;6.686;2022-11-14T06:54:56;100898.69;;;4.85;100.00
13068;BME280;6600;51.362;6.686;2022-11-14T06:57:22;100889.06;;;4.84;100.00
13068;BME280;6600;51.362;6.686;2022-11-14T06:59:47;100896.53;;;4.89;100.00
13068;BME280;6600;51.362;6.686;2022-11-14T07:02:12;100897.53;;;4.88;100.00
13068;BME280;6600;51.362;6.686;2022-11-14T07:04:38;100896.41;;;4.82;100.00
13068;BME280;6600;51.362;6.686;2022-11-14T07:07:03;100896.88;;;4.86;100.00
13068;BME280;6600;51.362;6.686;2022-11-14T07:09:28;100899.69;;;4.84;100.00
13068;BME280;6600;51.362;6.686;2022-11-14T07:11:54;100895.22;;;4.85;100.00
13068;BME280;6600;51.362;6.686;2022-11-14T07:14:19;100900.53;;;4.85;100.00
13068;BME280;6600;51.362;6.686;2022-11-14T07:16:44;100902.19;;;4.86;100.00
13068;BME280;6600;51.362;6.686;2022-11-14T07:19:10;100909.97;;;4.87;100.00
13068;BME280;6600;51.362;6.686;2022-11-14T07:21:35;100905.13;;;4.91;100.00
13068;BME280;6600;51.362;6.686;2022-11-14T07:24:01;100902.13;;;4.94;100.00
13068;BME280;6600;51.362;6.686;2022-11-14T07:26:26;100900.44;;;5.01;100.00
13068;BME280;6600;51.362;6.686;2022-11-14T07:28:51;100903.03;;;5.09;100.00
13068;BME280;6600;51.362;6.686;2022-11-14T07:31:18;100902.34;;;5.15;100.00
13068;BME280;6600;51.362;6.686;2022-11-14T07:33:44;100901.28;;;5.24;100.00
13068;BME280;6600;51.362;6.686;2022-11-14T07:36:11;100898.28;;;5.27;100.00
13068;BME280;6600;51.362;6.686;2022-11-14T07:38:37;100897.84;;;5.38;100.00
13068;BME280;6600;51.362;6.686;2022-11-14T07:41:05;100896.81;;;5.47;100.00
13068;BME280;6600;51.362;6.686;2022-11-14T07:43:31;100901.41;;;5.53;100.00
13068;BME280;6600;51.362;6.686;2022-11-14T07:46:01;100902.44;;;5.67;100.00
13068;BME280;6600;51.362;6.686;2022-11-14T07:48:27;100902.19;;;5.77;100.00
13068;BME280;6600;51.362;6.686;2022-11-14T07:50:57;100910.41;;;5.90;100.00
13068;BME280;6600;51.362;6.686;2022-11-14T07:53:23;100904.75;;;6.07;100.00
13068;BME280;6600;51.362;6.686;2022-11-14T07:55:48;100905.78;;;6.21;100.00
13068;BME280;6600;51.362;6.686;2022-11-14T07:58:13;100907.81;;;6.34;100.00
13068;BME280;6600;51.362;6.686;2022-11-14T08:00:39;100910.56;;;6.40;100.00
13068;BME280;6600;51.362;6.686;2022-11-14T08:03:06;100907.09;;;6.54;100.00
13068;BME280;6600;51.362;6.686;2022-11-14T08:05:32;100916.78;;;6.62;100.00
13068;BME280;6600;51.362;6.686;2022-11-14T08:07:57;100913.88;;;6.72;100.00
13068;BME280;6600;51.362;6.686;2022-11-14T08:10:22;100914.41;;;6.82;100.00
13068;BME280;6600;51.362;6.686;2022-11-14T08:12:59;100912.00;;;6.87;100.00
13068;BME280;6600;51.362;6.686;2022-11-14T08:15:26;100911.63;;;6.90;100.00
13068;BME280;6600;51.362;6.686;2022-11-14T08:17:51;100907.84;;;6.99;100.00
13068;BME280;6600;51.362;6.686;2022-11-14T08:20:17;100898.19;;;6.98;100.00
13068;BME280;6600;51.362;6.686;2022-11-14T08:22:42;100906.47;;;7.03;100.00
13068;BME280;6600;51.362;6.686;2022-11-14T08:25:08;100907.72;;;7.07;100.00
13068;BME280;6600;51.362;6.686;2022-11-14T08:27:33;100899.63;;;7.15;100.00
13068;BME280;6600;51.362;6.686;2022-11-14T08:29:58;100906.59;;;7.16;100.00
13068;BME280;6600;51.362;6.686;2022-11-14T08:32:24;100897.03;;;7.22;100.00
13068;BME280;6600;51.362;6.686;2022-11-14T08:34:49;100896.84;;;7.23;100.00
13068;BME280;6600;51.362;6.686;2022-11-14T08:37:14;100896.47;;;7.26;100.00
13068;BME280;6600;51.362;6.686;2022-11-14T08:39:39;100887.31;;;7.35;100.00
13068;BME280;6600;51.362;6.686;2022-11-14T08:42:05;100887.31;;;7.35;100.00
13068;BME280;6600;51.362;6.686;2022-11-14T08:44:30;100888.72;;;7.31;100.00
13068;BME280;6600;51.362;6.686;2022-11-14T08:46:55;100882.19;;;7.34;100.00
13068;BME280;6600;51.362;6.686;2022-11-14T08:49:23;100883.03;;;7.34;100.00
13068;BME280;6600;51.362;6.686;2022-11-14T08:51:51;100882.63;;;7.37;100.00
13068;BME280;6600;51.362;6.686;2022-11-14T08:54:16;100892.16;;;7.46;100.00
13068;BME280;6600;51.362;6.686;2022-11-14T08:56:41;100875.38;;;7.52;100.00
13068;BME280;6600;51.362;6.686;2022-11-14T08:59:07;100886.03;;;7.52;100.00
13068;BME280;6600;51.362;6.686;2022-11-14T09:01:32;100885.34;;;7.65;100.00
13068;BME280;6600;51.362;6.686;2022-11-14T09:03:58;100878.53;;;7.62;100.00
13068;BME280;6600;51.362;6.686;2022-11-14T09:06:24;100884.53;;;7.65;100.00
13068;BME280;6600;51.362;6.686;2022-11-14T09:08:49;100876.53;;;7.65;100.00
13068;BME280;6600;51.362;6.686;2022-11-14T09:11:14;100873.47;;;7.68;100.00
13068;BME280;6600;51.362;6.686;2022-11-14T09:13:40;100886.81;;;7.68;100.00
13068;BME280;6600;51.362;6.686;2022-11-14T09:16:05;100886.03;;;7.74;100.00
13068;BME280;6600;51.362;6.686;2022-11-14T09:18:30;100874.75;;;7.72;100.00
13068;BME280;6600;51.362;6.686;2022-11-14T09:21:03;100877.59;;;7.70;100.00
13068;BME280;6600;51.362;6.686;2022-11-14T09:23:29;100878.41;;;7.71;100.00
13068;BME280;6600;51.362;6.686;2022-11-14T09:25:54;100883.75;;;7.71;100.00
13068;BME280;6600;51.362;6.686;2022-11-14T09:28:21;100893.16;;;7.67;100.00
13068;BME280;6600;51.362;6.686;2022-11-14T09:30:47;100890.88;;;7.63;100.00
13068;BME280;6600;51.362;6.686;2022-11-14T09:33:12;100890.88;;;7.63;100.00
13068;BME280;6600;51.362;6.686;2022-11-14T09:35:38;100888.16;;;7.57;100.00
13068;BME280;6600;51.362;6.686;2022-11-14T09:38:07;100901.91;;;7.60;100.00
13068;BME280;6600;51.362;6.686;2022-11-14T09:40:50;100898.81;;;7.57;100.00
13068;BME280;6600;51.362;6.686;2022-11-14T09:45:47;100904.59;;;7.60;100.00
13068;BME280;6600;51.362;6.686;2022-11-14T09:48:20;100897.84;;;7.65;100.00
13068;BME280;6600;51.362;6.686;2022-11-14T09:51:04;100896.81;;;7.66;100.00
13068;BME280;6600;51.362;6.686;2022-11-14T09:53:33;100892.97;;;7.68;100.00
13068;BME280;6600;51.362;6.686;2022-11-14T09:56:01;100887.41;;;7.70;100.00
13068;BME280;6600;51.362;6.686;2022-11-14T09:58:26;100884.38;;;7.73;100.00
13068;BME280;6600;51.362;6.686;2022-11-14T10:01:05;100897.53;;;7.74;100.00
13068;BME280;6600;51.362;6.686;2022-11-14T10:04:16;100889.53;;;7.74;100.00
13068;BME280;6600;51.362;6.686;2022-11-14T10:07:02;100888.69;;;7.74;100.00
13068;BME280;6600;51.362;6.686;2022-11-14T10:15:30;100868.19;;;7.74;100.00
13068;BME280;6600;51.362;6.686;2022-11-14T10:18:10;100869.41;;;7.72;100.00
13068;BME280;6600;51.362;6.686;2022-11-14T10:26:08;100855.41;;;7.70;100.00
13068;BME280;6600;51.362;6.686;2022-11-14T10:31:22;100849.69;;;7.73;100.00
13068;BME280;6600;51.362;6.686;2022-11-14T10:33:59;100841.56;;;7.81;100.00
13068;BME280;6600;51.362;6.686;2022-11-14T10:41:37;100828.66;;;7.84;100.00
13068;BME280;6600;51.362;6.686;2022-11-14T10:44:09;100826.44;;;7.88;100.00
13068;BME280;6600;51.362;6.686;2022-11-14T10:46:38;100831.38;;;7.91;100.00
13068;BME280;6600;51.362;6.686;2022-11-14T10:49:18;100824.63;;;7.95;100.00
13068;BME280;6600;51.362;6.686;2022-11-14T10:51:49;100819.16;;;8.03;100.00
13068;BME280;6600;51.362;6.686;2022-11-14T10:56:56;100811.81;;;8.18;100.00
13068;BME280;6600;51.362;6.686;2022-11-14T10:59:22;100820.97;;;8.30;100.00
13068;BME280;6600;51.362;6.686;2022-11-14T11:01:57;100815.63;;;8.30;100.00
13068;BME280;6600;51.362;6.686;2022-11-14T11:07:17;100808.47;;;8.37;100.00
13068;BME280;6600;51.362;6.686;2022-11-14T11:10:02;100814.44;;;8.46;100.00
13068;BME280;6600;51.362;6.686;2022-11-14T11:12:51;100812.38;;;8.41;100.00
13068;BME280;6600;51.362;6.686;2022-11-14T11:17:59;100806.44;;;8.46;100.00
13068;BME280;6600;51.362;6.686;2022-11-14T11:20:26;100816.13;;;8.53;100.00
13068;BME280;6600;51.362;6.686;2022-11-14T11:23:05;100821.91;;;8.57;100.00
13068;BME280;6600;51.362;6.686;2022-11-14T11:25:32;100820.91;;;8.65;100.00
13068;BME280;6600;51.362;6.686;2022-11-14T11:28:17;100808.00;;;8.75;100.00
13068;BME280;6600;51.362;6.686;2022-11-14T11:33:28;100800.00;;;8.94;100.00
13068;BME280;6600;51.362;6.686;2022-11-14T11:35:58;100793.44;;;9.03;100.00
13068;BME280;6600;51.362;6.686;2022-11-14T11:38:26;100794.25;;;9.04;100.00
13068;BME280;6600;51.362;6.686;2022-11-14T11:41:18;100776.81;;;9.08;100.00
13068;BME280;6600;51.362;6.686;2022-11-14T11:43:53;100787.06;;;9.11;100.00
13068;BME280;6600;51.362;6.686;2022-11-14T11:46:28;100785.03;;;9.13;100.00
13068;BME280;6600;51.362;6.686;2022-11-14T11:49:01;100789.97;;;9.16;100.00
13068;BME280;6600;51.362;6.686;2022-11-14T11:51:27;100778.88;;;9.19;100.00
13068;BME280;6600;51.362;6.686;2022-11-14T11:53:59;100771.69;;;9.33;100.00
13068;BME280;6600;51.362;6.686;2022-11-14T11:56:30;100772.28;;;9.41;100.00
13068;BME280;6600;51.362;6.686;2022-11-14T11:59:20;100773.09;;;9.29;100.00
13068;BME280;6600;51.362;6.686;2022-11-14T12:01:50;100771.03;;;9.24;100.00
13068;BME280;6600;51.362;6.686;2022-11-14T12:04:16;100764.47;;;9.20;100.00
13068;BME280;6600;51.362;6.686;2022-11-14T12:07:11;100745.97;;;9.19;100.00
13068;BME280;6600;51.362;6.686;2022-11-14T12:09:38;100737.34;;;9.23;100.00
13068;BME280;6600;51.362;6.686;2022-11-14T12:12:12;100729.50;;;9.28;100.00
13068;BME280;6600;51.362;6.686;2022-11-14T12:18:01;100713.44;;;9.41;100.00
13068;BME280;6600;51.362;6.686;2022-11-14T12:20:44;100702.34;;;9.44;100.00
13068;BME280;6600;51.362;6.686;2022-11-14T12:29:32;100708.47;;;9.64;100.00
13068;BME280;6600;51.362;6.686;2022-11-14T12:31:45;100715.06;;;9.62;100.00
13068;BME280;6600;51.362;6.686;2022-11-14T12:34:21;100706.22;;;9.55;100.00
13068;BME280;6600;51.362;6.686;2022-11-14T12:36:49;100699.84;;;9.56;100.00
13068;BME280;6600;51.362;6.686;2022-11-14T12:39:26;100696.16;;;9.57;100.00
13068;BME280;6600;51.362;6.686;2022-11-14T12:42:06;100684.63;;;9.56;100.00
13068;BME280;6600;51.362;6.686;2022-11-14T12:44:38;100681.94;;;9.63;100.00
13068;BME280;6600;51.362;6.686;2022-11-14T12:52:42;100693.44;;;9.70;100.00
13068;BME280;6600;51.362;6.686;2022-11-14T13:00:31;100706.22;;;9.61;100.00
13068;BME280;6600;51.362;6.686;2022-11-14T13:03:25;100708.47;;;9.64;100.00
13068;BME280;6600;51.362;6.686;2022-11-14T13:06:03;100706.22;;;9.61;100.00
13068;BME280;6600;51.362;6.686;2022-11-14T13:08:45;100712.19;;;9.57;100.00
13068;BME280;6600;51.362;6.686;2022-11-14T13:11:32;100712.19;;;9.57;100.00
13068;BME280;6600;51.362;6.686;2022-11-14T13:14:18;100722.50;;;9.53;100.00
13068;BME280;6600;51.362;6.686;2022-11-14T13:20:00;100705.63;;;9.46;100.00
13068;BME280;6600;51.362;6.686;2022-11-14T13:22:45;100711.81;;;9.47;100.00
13068;BME280;6600;51.362;6.686;2022-11-14T13:25:16;100719.59;;;9.48;100.00
13068;BME280;6600;51.362;6.686;2022-11-14T13:27:41;100717.97;;;9.54;100.00
13068;BME280;6600;51.362;6.686;2022-11-14T13:30:07;100715.88;;;9.56;100.00
13068;BME280;6600;51.362;6.686;2022-11-14T13:40:39;100708.09;;;9.48;100.00
13068;BME280;6600;51.362;6.686;2022-11-14T13:49:31;100708.50;;;9.45;100.00
13068;BME280;6600;51.362;6.686;2022-11-14T13:52:04;100703.97;;;9.45;100.00
13068;BME280;6600;51.362;6.686;2022-11-14T13:54:30;100698.22;;;9.42;100.00
13068;BME280;6600;51.362;6.686;2022-11-14T14:05:43;100691.03;;;9.42;100.00
13068;BME280;6600;51.362;6.686;2022-11-14T14:16:36;100685.09;;;9.34;100.00
13068;BME280;6600;51.362;6.686;2022-11-14T14:19:17;100678.09;;;9.33;100.00
13068;BME280;6600;51.362;6.686;2022-11-14T14:24:52;100669.84;;;9.41;100.00
13068;BME280;6600;51.362;6.686;2022-11-14T14:27:28;100664.91;;;9.44;100.00
13068;BME280;6600;51.362;6.686;2022-11-14T14:30:05;100661.19;;;9.39;100.00
13068;BME280;6600;51.362;6.686;2022-11-14T14:32:32;100656.25;;;9.42;100.00
13068;BME280;6600;51.362;6.686;2022-11-14T14:34:58;100651.34;;;9.39;100.00
13068;BME280;6600;51.362;6.686;2022-11-14T14:37:27;100649.25;;;9.41;100.00